createdAt,value
2019-03-20T00:00:35.959Z,13.29
2019-03-20T00:03:05.781Z,13.37
2019-03-20T00:05:35.500Z,13.43
2019-03-20T00:08:05.063Z,13.39
2019-03-20T00:10:34.587Z,13.39
2019-03-20T00:13:04.198Z,13.28
2019-03-20T00:15:33.739Z,13.25
2019-03-20T00:18:03.397Z,13.28
2019-03-20T00:20:32.920Z,13.34
2019-03-20T00:23:02.461Z,13.34
2019-03-20T00:25:31.977Z,13.36
2019-03-20T00:28:01.539Z,13.40
2019-03-20T00:30:31.068Z,13.35
2019-03-20T00:33:00.599Z,13.35
2019-03-20T00:35:30.118Z,13.33
2019-03-20T00:37:59.680Z,13.31
2019-03-20T00:40:29.216Z,13.29
2019-03-20T00:42:58.758Z,13.28
2019-03-20T00:45:29.694Z,13.25
2019-03-20T00:47:59.303Z,13.27
2019-03-20T00:50:28.863Z,13.22
2019-03-20T00:52:58.413Z,13.22
2019-03-20T00:55:27.958Z,13.18
2019-03-20T00:57:57.493Z,13.05
2019-03-20T01:00:27.043Z,13.03
2019-03-20T01:02:56.582Z,12.99
2019-03-20T01:05:26.215Z,12.93
2019-03-20T01:07:55.779Z,12.85
2019-03-20T01:10:25.322Z,12.84
2019-03-20T01:12:54.877Z,12.59
2019-03-20T01:15:24.404Z,12.37
2019-03-20T01:17:53.960Z,12.28
2019-03-20T01:20:23.510Z,12.23
2019-03-20T01:22:53.072Z,12.07
2019-03-20T01:25:22.607Z,12.04
2019-03-20T01:27:52.204Z,11.97
2019-03-20T01:30:37.942Z,11.87
2019-03-20T01:33:09.054Z,11.86
2019-03-20T01:35:38.604Z,11.73
2019-03-20T01:38:08.237Z,11.65
2019-03-20T01:40:40.026Z,11.56
2019-03-20T01:43:09.159Z,11.59
2019-03-20T01:45:38.695Z,11.57
2019-03-20T01:48:08.230Z,11.48
2019-03-20T01:50:37.764Z,11.38
2019-03-20T01:53:07.306Z,11.39
2019-03-20T01:55:36.828Z,11.36
2019-03-20T01:58:06.385Z,11.29
2019-03-20T02:00:35.920Z,11.19
2019-03-20T02:03:05.477Z,11.21
2019-03-20T02:05:36.520Z,11.22
2019-03-20T02:08:06.246Z,11.19
2019-03-20T02:10:35.767Z,11.13
2019-03-20T02:13:05.315Z,11.09
2019-03-20T02:15:39.359Z,11.05
2019-03-20T02:18:06.122Z,10.99
2019-03-20T02:20:35.657Z,10.96
2019-03-20T02:23:05.283Z,10.94
2019-03-20T02:25:34.820Z,10.95
2019-03-20T02:28:04.434Z,10.95
2019-03-20T02:30:33.966Z,10.89
2019-03-20T02:33:03.518Z,10.90
2019-03-20T02:35:33.049Z,10.88
2019-03-20T02:38:02.608Z,10.89
2019-03-20T02:40:32.149Z,10.81
2019-03-20T02:43:01.699Z,10.85
2019-03-20T02:45:31.266Z,10.83
2019-03-20T02:48:00.813Z,10.77
2019-03-20T02:50:30.426Z,10.83
2019-03-20T02:52:59.971Z,10.85
2019-03-20T02:55:29.531Z,10.88
2019-03-20T02:57:59.260Z,10.86
2019-03-20T03:00:28.800Z,10.83
2019-03-20T03:02:58.352Z,10.80
2019-03-20T03:05:27.885Z,10.81
2019-03-20T03:07:57.442Z,10.85
2019-03-20T03:10:27.005Z,10.89
2019-03-20T03:12:56.559Z,10.89
2019-03-20T03:15:26.188Z,10.91
2019-03-20T03:17:55.705Z,10.89
2019-03-20T03:20:25.265Z,10.83
2019-03-20T03:22:54.804Z,10.79
2019-03-20T03:25:24.373Z,10.66
2019-03-20T03:27:53.983Z,10.65
2019-03-20T03:30:23.510Z,10.70
2019-03-20T03:32:53.091Z,10.67
2019-03-20T03:35:22.619Z,10.65
2019-03-20T03:37:52.178Z,10.64
2019-03-20T03:40:21.742Z,10.68
2019-03-20T03:42:51.282Z,10.67
2019-03-20T03:45:20.809Z,10.67
2019-03-20T03:47:50.362Z,10.59
2019-03-20T03:50:19.908Z,10.55
2019-03-20T03:52:49.441Z,10.53
2019-03-20T03:55:18.985Z,10.56
2019-03-20T03:57:48.560Z,10.53
2019-03-20T04:00:18.141Z,10.53
2019-03-20T04:02:47.687Z,10.60
2019-03-20T04:05:17.239Z,10.59
2019-03-20T04:07:46.793Z,10.63
2019-03-20T04:10:16.329Z,10.50
2019-03-20T04:12:45.915Z,10.48
2019-03-20T04:15:15.479Z,10.55
2019-03-20T04:17:45.052Z,10.48
2019-03-20T04:20:14.614Z,10.46
2019-03-20T04:22:44.151Z,10.38
2019-03-20T04:25:13.692Z,10.43
2019-03-20T04:27:43.280Z,10.40
2019-03-20T04:30:12.861Z,10.35
2019-03-20T04:32:42.394Z,10.23
2019-03-20T04:35:11.948Z,10.17
2019-03-20T04:37:41.563Z,10.16
2019-03-20T04:40:11.173Z,10.11
2019-03-20T04:42:40.713Z,10.06
2019-03-20T04:45:12.652Z,10.08
2019-03-20T04:47:42.337Z,10.05
2019-03-20T04:50:12.009Z,10.15
2019-03-20T04:52:41.534Z,10.16
2019-03-20T04:55:11.122Z,10.14
2019-03-20T04:57:40.784Z,10.14
2019-03-20T05:00:12.657Z,10.23
2019-03-20T05:02:42.210Z,10.26
2019-03-20T05:05:11.737Z,10.27
2019-03-20T05:07:41.295Z,10.28
2019-03-20T05:10:12.291Z,10.32
2019-03-20T05:12:41.877Z,10.31
2019-03-20T05:15:11.491Z,10.29
2019-03-20T05:17:41.042Z,10.31
2019-03-20T05:20:11.821Z,10.26
2019-03-20T05:22:41.388Z,10.25
2019-03-20T05:25:10.955Z,10.21
2019-03-20T05:27:40.543Z,10.17
2019-03-20T05:30:11.052Z,10.24
2019-03-20T05:32:40.662Z,10.18
2019-03-20T05:35:10.220Z,10.21
2019-03-20T05:37:39.789Z,10.31
2019-03-20T05:40:10.525Z,10.31
2019-03-20T05:42:40.070Z,10.34
2019-03-20T05:45:10.888Z,10.48
2019-03-20T05:47:40.451Z,10.54
2019-03-20T05:50:10.861Z,10.55
2019-03-20T05:52:40.421Z,10.59
2019-03-20T05:55:09.979Z,10.37
2019-03-20T05:57:39.574Z,10.48
2019-03-20T06:00:10.438Z,10.53
2019-03-20T06:02:39.983Z,10.57
2019-03-20T06:05:09.544Z,10.61
2019-03-20T06:07:39.092Z,10.63
2019-03-20T06:10:10.444Z,10.60
2019-03-20T06:12:40.108Z,10.68
2019-03-20T06:15:09.673Z,10.66
2019-03-20T06:17:39.231Z,10.61
2019-03-20T06:20:08.989Z,10.58
2019-03-20T06:22:38.537Z,10.65
2019-03-20T06:25:08.438Z,10.57
2019-03-20T06:27:37.968Z,10.69
2019-03-20T06:30:09.164Z,10.75
2019-03-20T06:32:38.700Z,10.83
2019-03-20T06:35:08.879Z,10.85
2019-03-20T06:37:38.454Z,10.64
2019-03-20T06:40:08.601Z,10.64
2019-03-20T06:42:38.124Z,10.71
2019-03-20T06:45:08.546Z,10.60
2019-03-20T06:47:38.108Z,10.62
2019-03-20T06:50:10.782Z,10.66
2019-03-20T06:52:40.316Z,10.68
2019-03-20T06:55:09.958Z,10.68
2019-03-20T06:57:39.523Z,10.47
2019-03-20T07:00:52.996Z,10.50
2019-03-20T07:03:41.812Z,10.54
2019-03-20T07:06:35.655Z,10.43
2019-03-20T07:09:15.998Z,10.47
2019-03-20T07:11:45.589Z,10.64
2019-03-20T07:14:15.122Z,10.70
2019-03-20T07:16:44.666Z,10.78
2019-03-20T07:19:14.211Z,10.96
2019-03-20T07:21:43.807Z,11.01
2019-03-20T07:24:13.386Z,11.04
2019-03-20T07:26:42.922Z,11.32
2019-03-20T07:29:12.481Z,11.52
2019-03-20T07:31:42.015Z,11.56
2019-03-20T07:34:11.569Z,11.61
2019-03-20T07:36:41.116Z,11.67
2019-03-20T07:39:11.074Z,11.99
2019-03-20T07:41:40.723Z,12.10
2019-03-20T07:44:10.268Z,12.05
2019-03-20T07:46:39.802Z,11.92
2019-03-20T07:49:09.372Z,11.74
2019-03-20T07:51:38.910Z,11.72
2019-03-20T07:54:08.288Z,11.68
2019-03-20T07:56:37.820Z,11.72
2019-03-20T07:59:07.372Z,11.83
2019-03-20T08:01:36.911Z,11.90
2019-03-20T08:04:06.474Z,11.97
2019-03-20T08:06:36.141Z,12.13
2019-03-20T08:09:07.638Z,12.28
2019-03-20T08:11:37.167Z,12.30
2019-03-20T08:14:06.706Z,12.19
2019-03-20T08:16:36.263Z,12.23
2019-03-20T08:19:05.799Z,12.39
2019-03-20T08:21:35.338Z,12.39
2019-03-20T08:24:04.884Z,12.39
2019-03-20T08:26:34.520Z,12.34
2019-03-20T08:29:04.065Z,12.19
2019-03-20T08:31:33.613Z,12.07
2019-03-20T08:34:03.160Z,11.90
2019-03-20T08:36:32.799Z,12.01
2019-03-20T08:39:02.316Z,11.73
2019-03-20T08:41:31.859Z,11.83
2019-03-20T08:44:01.399Z,12.00
2019-03-20T08:46:30.960Z,12.16
2019-03-20T08:49:00.489Z,12.14
2019-03-20T08:51:30.044Z,12.23
2019-03-20T08:53:59.594Z,12.28
2019-03-20T08:56:29.171Z,12.40
2019-03-20T08:58:58.750Z,12.41
2019-03-20T09:01:29.118Z,12.35
2019-03-20T09:03:58.844Z,12.29
2019-03-20T09:06:28.400Z,12.33
2019-03-20T09:08:57.946Z,12.54
2019-03-20T09:11:27.510Z,12.70
2019-03-20T09:13:57.054Z,12.90
2019-03-20T09:16:27.381Z,13.09
2019-03-20T09:18:57.117Z,12.88
2019-03-20T09:21:26.750Z,13.20
2019-03-20T09:23:56.275Z,13.32
2019-03-20T09:26:25.846Z,13.51
2019-03-20T09:28:55.392Z,13.41
2019-03-20T09:31:24.942Z,13.82
2019-03-20T09:33:54.607Z,13.61
2019-03-20T09:36:24.232Z,13.59
2019-03-20T09:38:53.782Z,13.95
2019-03-20T09:41:23.380Z,14.08
2019-03-20T09:43:52.926Z,13.99
2019-03-20T09:46:22.536Z,14.09
2019-03-20T09:48:52.103Z,14.37
2019-03-20T09:51:21.649Z,14.43
2019-03-20T09:53:51.181Z,14.62
2019-03-20T09:56:20.720Z,14.92
2019-03-20T09:58:50.278Z,14.81
2019-03-20T10:01:19.827Z,14.76
2019-03-20T10:03:49.382Z,14.94
2019-03-20T10:06:18.935Z,15.16
2019-03-20T10:08:53.941Z,15.82
2019-03-20T10:11:19.764Z,15.99
2019-03-20T10:13:49.311Z,16.84
2019-03-20T10:16:18.858Z,16.86
2019-03-20T10:18:48.449Z,17.37
2019-03-20T10:21:17.988Z,17.85
2019-03-20T10:23:47.539Z,18.11
2019-03-20T10:26:17.070Z,19.24
2019-03-20T10:28:46.624Z,19.54
2019-03-20T10:31:16.163Z,18.23
2019-03-20T10:33:45.747Z,17.99
2019-03-20T10:36:15.271Z,18.15
2019-03-20T10:38:44.852Z,18.37
2019-03-20T10:41:14.409Z,19.44
2019-03-20T10:43:43.959Z,20.23
2019-03-20T10:46:13.498Z,19.76
2019-03-20T10:48:43.046Z,19.08
2019-03-20T10:51:12.591Z,19.45
2019-03-20T10:53:42.153Z,19.29
2019-03-20T10:56:11.878Z,19.51
2019-03-20T10:58:41.430Z,19.24
2019-03-20T11:01:11.031Z,19.64
2019-03-20T11:03:40.592Z,20.34
2019-03-20T11:06:10.165Z,21.30
2019-03-20T11:08:39.717Z,21.64
2019-03-20T11:11:09.272Z,20.78
2019-03-20T11:13:38.837Z,20.59
2019-03-20T11:16:08.419Z,21.04
2019-03-20T11:18:38.309Z,20.13
2019-03-20T11:21:08.013Z,20.81
2019-03-20T11:23:37.604Z,20.13
2019-03-20T11:26:07.486Z,20.71
2019-03-20T11:28:37.183Z,21.37
2019-03-20T11:31:06.725Z,22.51
2019-03-20T11:33:36.517Z,23.64
2019-03-20T11:36:06.079Z,23.32
2019-03-20T11:38:35.626Z,22.39
2019-03-20T11:41:05.325Z,22.30
2019-03-20T11:43:34.878Z,21.75
2019-03-20T11:46:04.422Z,20.66
2019-03-20T11:48:33.973Z,19.75
2019-03-20T11:51:03.535Z,19.24
2019-03-20T11:53:33.083Z,19.59
2019-03-20T11:56:02.615Z,20.41
2019-03-20T11:58:32.173Z,20.91
2019-03-20T12:01:01.863Z,21.19
2019-03-20T12:03:31.605Z,21.46
2019-03-20T12:06:01.136Z,20.78
2019-03-20T12:08:30.695Z,20.25
2019-03-20T12:11:00.282Z,20.14
2019-03-20T12:13:29.854Z,19.90
2019-03-20T12:15:59.596Z,19.64
2019-03-20T12:18:29.203Z,19.93
2019-03-20T12:20:58.809Z,20.45
2019-03-20T12:23:28.382Z,20.64
2019-03-20T12:25:57.917Z,20.88
2019-03-20T12:28:27.499Z,21.21
2019-03-20T12:30:57.025Z,21.89
2019-03-20T12:33:26.551Z,22.72
2019-03-20T12:35:56.101Z,23.00
2019-03-20T12:38:25.699Z,23.41
2019-03-20T12:40:55.240Z,22.46
2019-03-20T12:43:24.793Z,22.12
2019-03-20T12:45:54.348Z,21.60
2019-03-20T12:48:23.950Z,20.87
2019-03-20T12:50:53.503Z,20.29
2019-03-20T12:53:24.060Z,19.77
2019-03-20T12:55:53.609Z,19.28
2019-03-20T12:58:23.156Z,18.78
2019-03-20T13:00:54.546Z,18.75
2019-03-20T13:03:23.974Z,18.47
2019-03-20T13:05:53.536Z,18.10
2019-03-20T13:08:23.159Z,17.90
2019-03-20T13:10:52.654Z,17.81
2019-03-20T13:13:22.185Z,17.51
2019-03-20T13:15:51.773Z,17.45
2019-03-20T13:18:21.318Z,17.31
2019-03-20T13:20:50.938Z,17.21
2019-03-20T13:23:22.752Z,17.34
2019-03-20T13:25:52.294Z,17.22
2019-03-20T13:28:21.849Z,17.28
2019-03-20T13:30:54.623Z,17.15
2019-03-20T13:33:26.053Z,17.10
2019-03-20T13:35:55.442Z,16.81
2019-03-20T13:38:25.014Z,16.89
2019-03-20T13:40:54.546Z,16.88
2019-03-20T13:43:24.078Z,16.86
2019-03-20T13:45:53.606Z,16.84
2019-03-20T13:48:23.179Z,16.84
2019-03-20T13:50:52.735Z,16.77
2019-03-20T13:53:22.278Z,16.82
2019-03-20T13:55:51.816Z,16.81
2019-03-20T13:58:21.353Z,16.81
2019-03-20T14:00:50.941Z,16.83
2019-03-20T14:03:20.531Z,16.82
2019-03-20T14:05:50.072Z,16.67
2019-03-20T14:08:19.615Z,16.48
2019-03-20T14:10:50.818Z,16.36
2019-03-20T14:13:20.575Z,16.35
2019-03-20T14:15:50.125Z,16.30
2019-03-20T14:18:19.693Z,16.27
2019-03-20T14:20:49.242Z,16.21
2019-03-20T14:23:18.787Z,16.21
2019-03-20T14:25:48.312Z,16.14
2019-03-20T14:28:17.851Z,16.14
2019-03-20T14:30:47.394Z,16.12
2019-03-20T14:33:16.947Z,16.13
2019-03-20T14:35:46.489Z,16.10
2019-03-20T14:38:16.022Z,16.04
2019-03-20T14:40:45.557Z,16.03
2019-03-20T14:43:15.175Z,16.03
2019-03-20T14:45:44.842Z,16.00
2019-03-20T14:48:14.390Z,15.96
2019-03-20T14:50:43.926Z,15.90
2019-03-20T14:53:13.474Z,15.83
2019-03-20T14:55:43.052Z,15.80
2019-03-20T14:58:12.587Z,15.80
2019-03-20T15:00:42.136Z,15.75
2019-03-20T15:03:11.679Z,15.66
2019-03-20T15:05:41.354Z,15.68
2019-03-20T15:08:10.872Z,15.59
2019-03-20T15:10:45.838Z,15.59
2019-03-20T15:13:11.710Z,15.52
2019-03-20T15:15:47.558Z,15.46
2019-03-20T15:18:17.087Z,15.40
2019-03-20T15:20:46.654Z,15.39
2019-03-20T15:23:16.235Z,15.35
2019-03-20T15:25:45.785Z,15.23
2019-03-20T15:28:15.347Z,15.11
2019-03-20T15:30:44.888Z,15.03
2019-03-20T15:33:14.447Z,14.95
2019-03-20T15:35:44.024Z,14.92
2019-03-20T15:38:13.556Z,14.86
2019-03-20T15:40:43.087Z,14.79
2019-03-20T15:43:12.639Z,14.68
2019-03-20T15:45:42.304Z,14.59
2019-03-20T15:48:11.870Z,14.53
2019-03-20T15:50:41.426Z,14.44
2019-03-20T15:53:11.088Z,14.35
2019-03-20T15:55:40.621Z,14.26
2019-03-20T15:58:10.225Z,14.19
2019-03-20T16:00:39.890Z,14.09
2019-03-20T16:03:12.269Z,14.04
2019-03-20T16:05:41.814Z,13.90
2019-03-20T16:08:11.388Z,13.85
2019-03-20T16:10:40.964Z,13.75
2019-03-20T16:13:10.502Z,13.61
2019-03-20T16:15:40.046Z,13.53
2019-03-20T16:18:09.641Z,13.43
2019-03-20T16:20:39.187Z,13.40
2019-03-20T16:23:08.769Z,13.32
2019-03-20T16:25:38.300Z,13.19
2019-03-20T16:28:07.895Z,13.05
2019-03-20T16:30:37.432Z,12.94
2019-03-20T16:33:06.993Z,12.87
2019-03-20T16:35:36.538Z,12.73
2019-03-20T16:38:07.049Z,12.63
2019-03-20T16:40:36.953Z,12.56
2019-03-20T16:43:06.497Z,12.46
2019-03-20T16:45:36.088Z,12.38
2019-03-20T16:48:05.714Z,12.30
2019-03-20T16:50:35.279Z,12.26
2019-03-20T16:53:04.817Z,12.20
2019-03-20T16:55:34.371Z,12.00
2019-03-20T16:58:03.947Z,12.21
2019-03-20T17:00:33.502Z,12.15
2019-03-20T17:03:03.036Z,12.13
2019-03-20T17:05:32.669Z,12.05
2019-03-20T17:08:02.218Z,11.97
2019-03-20T17:10:34.129Z,11.89
2019-03-20T17:13:03.748Z,11.81
2019-03-20T17:15:33.387Z,11.74
2019-03-20T17:18:02.895Z,11.60
2019-03-20T17:20:32.451Z,11.50
2019-03-20T17:23:02.014Z,11.36
2019-03-20T17:25:31.619Z,11.25
2019-03-20T17:28:01.169Z,11.13
2019-03-20T17:30:32.732Z,11.02
2019-03-20T17:33:02.386Z,10.91
2019-03-20T17:35:31.942Z,10.77
2019-03-20T17:38:01.574Z,10.65
2019-03-20T17:40:31.112Z,10.57
2019-03-20T17:43:00.662Z,10.50
2019-03-20T17:45:30.240Z,10.38
2019-03-20T17:47:59.789Z,10.27
2019-03-20T17:50:29.601Z,10.23
2019-03-20T17:52:59.193Z,10.14
2019-03-20T17:55:28.832Z,10.05
2019-03-20T17:57:58.391Z,10.00
2019-03-20T18:00:35.909Z,9.94
2019-03-20T18:03:05.570Z,9.90
2019-03-20T18:05:35.109Z,9.88
2019-03-20T18:08:04.820Z,9.87
2019-03-20T18:10:34.347Z,9.87
2019-03-20T18:13:03.910Z,9.83
2019-03-20T18:15:33.439Z,9.75
2019-03-20T18:18:03.038Z,9.68
2019-03-20T18:20:32.605Z,9.64
2019-03-20T18:23:02.162Z,9.49
2019-03-20T18:25:31.690Z,9.40
2019-03-20T18:28:01.310Z,9.32
2019-03-20T18:30:31.030Z,9.23
2019-03-20T18:33:00.599Z,9.17
2019-03-20T18:35:30.149Z,9.13
2019-03-20T18:37:59.663Z,9.08
2019-03-20T18:40:29.214Z,8.97
2019-03-20T18:42:58.832Z,8.89
2019-03-20T18:45:28.408Z,8.81
2019-03-20T18:47:57.935Z,8.75
2019-03-20T18:50:27.494Z,8.68
2019-03-20T18:52:57.039Z,8.70
2019-03-20T18:55:26.693Z,8.68
2019-03-20T18:57:56.300Z,8.61
2019-03-20T19:00:26.213Z,8.57
2019-03-20T19:02:56.620Z,8.57
2019-03-20T19:05:35.653Z,8.54
2019-03-20T19:08:05.317Z,8.60
2019-03-20T19:10:34.938Z,8.64
2019-03-20T19:13:04.560Z,8.62
2019-03-20T19:15:34.126Z,8.61
2019-03-20T19:18:03.731Z,8.60
2019-03-20T19:20:33.318Z,8.59
2019-03-20T19:23:02.855Z,8.61
2019-03-20T19:25:36.358Z,8.56
2019-03-20T19:28:06.025Z,8.59
2019-03-20T19:30:35.598Z,8.58
2019-03-20T19:33:05.277Z,8.56
2019-03-20T19:35:34.817Z,8.55
2019-03-20T19:38:04.352Z,8.46
2019-03-20T19:41:37.004Z,8.43
2019-03-20T19:44:50.006Z,8.40
2019-03-20T19:48:29.541Z,8.30
2019-03-20T19:51:14.943Z,8.29
2019-03-20T19:54:02.236Z,8.19
2019-03-20T19:56:37.838Z,8.14
2019-03-20T19:59:07.378Z,8.09
2019-03-20T20:02:30.834Z,8.11
2019-03-20T20:05:00.422Z,8.09
2019-03-20T20:07:29.973Z,7.95
2019-03-20T20:09:59.514Z,7.83
2019-03-20T20:12:31.497Z,7.80
2019-03-20T20:15:00.418Z,7.74
2019-03-20T20:17:29.947Z,7.73
2019-03-20T20:19:59.531Z,7.70
2019-03-20T20:22:29.075Z,7.68
2019-03-20T20:24:58.628Z,7.66
2019-03-20T20:27:28.241Z,7.67
2019-03-20T20:29:57.823Z,7.66
2019-03-20T20:32:27.365Z,7.63
2019-03-20T20:34:56.905Z,7.62
2019-03-20T20:37:26.542Z,7.60
2019-03-20T20:39:56.198Z,7.60
2019-03-20T20:42:25.768Z,7.63
2019-03-20T20:44:55.308Z,7.61
2019-03-20T20:47:24.847Z,7.59
2019-03-20T20:49:54.521Z,7.55
2019-03-20T20:52:24.079Z,7.50
2019-03-20T20:54:53.688Z,7.52
2019-03-20T20:57:23.224Z,7.53
2019-03-20T20:59:52.800Z,7.59
2019-03-20T21:02:22.331Z,7.65
2019-03-20T21:04:51.908Z,7.73
2019-03-20T21:07:21.474Z,7.80
2019-03-20T21:09:51.035Z,7.87
2019-03-20T21:12:20.573Z,7.95
2019-03-20T21:14:51.112Z,7.97
2019-03-20T21:17:27.396Z,8.05
2019-03-20T21:19:57.474Z,8.13
2019-03-20T21:23:03.683Z,8.18
2019-03-20T21:25:33.806Z,8.22
2019-03-20T21:28:50.469Z,8.26
2019-03-20T21:31:40.710Z,8.21
2019-03-20T21:34:56.950Z,8.13
2019-03-20T21:38:10.733Z,8.06
2019-03-20T21:41:21.453Z,8.00
2019-03-20T21:44:42.429Z,7.96
2019-03-20T21:47:33.616Z,7.91
2019-03-20T21:51:02.110Z,7.85
2019-03-20T21:54:11.279Z,7.76
2019-03-20T21:56:45.070Z,7.67
2019-03-20T21:59:45.244Z,7.62
2019-03-20T22:02:42.436Z,7.61
2019-03-20T22:05:55.222Z,7.61
2019-03-20T22:08:25.296Z,7.59
2019-03-20T22:11:41.999Z,7.52
2019-03-20T22:14:12.073Z,7.52
2019-03-20T22:17:17.442Z,7.47
2019-03-20T22:20:37.015Z,7.43
2019-03-20T22:23:40.328Z,7.34
2019-03-20T22:26:46.769Z,7.30
2019-03-20T22:29:27.381Z,7.22
2019-03-20T22:32:44.394Z,7.15
2019-03-20T22:35:47.475Z,7.14
2019-03-20T22:39:09.282Z,7.11
2019-03-20T22:42:25.943Z,7.06
2019-03-20T22:45:20.523Z,7.07
2019-03-20T22:48:18.881Z,7.08
2019-03-20T22:51:16.982Z,7.00
2019-03-20T22:54:18.199Z,7.01
2019-03-20T22:57:11.792Z,6.99
2019-03-20T22:59:41.866Z,7.00
2019-03-20T23:02:38.149Z,6.95
2019-03-20T23:05:09.188Z,6.89
2019-03-20T23:07:39.300Z,6.80
2019-03-20T23:10:11.991Z,6.76
2019-03-20T23:12:42.072Z,6.75
2019-03-20T23:15:14.596Z,6.74
2019-03-20T23:17:44.694Z,6.75
2019-03-20T23:20:17.281Z,6.69
2019-03-20T23:22:47.369Z,6.70
2019-03-20T23:25:17.453Z,6.69
2019-03-20T23:27:47.568Z,6.69
2019-03-20T23:30:20.633Z,6.76
2019-03-20T23:32:50.705Z,6.83
2019-03-20T23:35:20.796Z,6.96
2019-03-20T23:37:50.910Z,7.04
2019-03-20T23:40:20.986Z,7.09
2019-03-20T23:42:51.121Z,7.13
2019-03-20T23:45:21.219Z,7.16
2019-03-20T23:48:17.716Z,7.20
2019-03-20T23:50:48.226Z,7.16
2019-03-20T23:53:18.292Z,7.10
2019-03-20T23:55:48.364Z,7.09
2019-03-20T23:58:18.426Z,7.10
